THY2205 LTFJ-LTAI
Flight info
| Callsign | THY2205 |
|---|---|
| Flight time | N/A |
| Altitude | 29000 |
| Route | ROXUK UN617 ERVAG UT305 TEKDO UT35 BABSA |
| Aircraft | A21N/M-SDE3FGHIRWY/LB1 |
Departure
| Time | 2026-05-08 03:53 |
|---|---|
| Airport | Istanbul Sabiha Gökçen International Airport (LTFJ) |
Arrival
| Time | N/A |
|---|---|
| Airport | Antalya International Airport (LTAI) |
| Time | Latitude | Longitude | Altitude | Speed | Heading |
|---|---|---|---|---|---|
| 2026-05-08 03:41 | 40.90220 | 29.31035 | 321 ft | 0 kts | 153° |
| 2026-05-08 03:44 | 40.90226 | 29.31031 | 321 ft | 2 kts | 156° |
| 2026-05-08 03:44 | 40.90239 | 29.31024 | 321 ft | 2 kts | 157° |
| 2026-05-08 03:45 | 40.90253 | 29.31016 | 321 ft | 2 kts | 156° |
| 2026-05-08 03:45 | 40.90266 | 29.31009 | 321 ft | 1 kts | 157° |
| 2026-05-08 03:45 | 40.90277 | 29.31002 | 321 ft | 1 kts | 149° |
| 2026-05-08 03:45 | 40.90286 | 29.31000 | 321 ft | 1 kts | 215° |
| 2026-05-08 03:46 | 40.90291 | 29.31007 | 321 ft | 1 kts | 252° |
| 2026-05-08 03:46 | 40.90293 | 29.31013 | 321 ft | 0 kts | 244° |
| 2026-05-08 03:48 | 40.90291 | 29.31008 | 320 ft | 0 kts | 244° |
| 2026-05-08 03:48 | 40.90282 | 29.30983 | 320 ft | 5 kts | 244° |
| 2026-05-08 03:48 | 40.90260 | 29.30925 | 320 ft | 9 kts | 245° |
| 2026-05-08 03:48 | 40.90209 | 29.30878 | 321 ft | 10 kts | 159° |
| 2026-05-08 03:49 | 40.90141 | 29.30921 | 320 ft | 11 kts | 153° |
| 2026-05-08 03:49 | 40.90068 | 29.30912 | 320 ft | 11 kts | 213° |
| 2026-05-08 03:49 | 40.90031 | 29.30827 | 320 ft | 11 kts | 243° |
| 2026-05-08 03:49 | 40.89995 | 29.30729 | 320 ft | 12 kts | 244° |
| 2026-05-08 03:50 | 40.89955 | 29.30620 | 320 ft | 14 kts | 245° |
| 2026-05-08 03:50 | 40.89909 | 29.30495 | 320 ft | 15 kts | 244° |
| 2026-05-08 03:50 | 40.89858 | 29.30359 | 320 ft | 17 kts | 244° |
| 2026-05-08 03:50 | 40.89805 | 29.30213 | 320 ft | 17 kts | 244° |
| 2026-05-08 03:51 | 40.89751 | 29.30068 | 320 ft | 17 kts | 244° |
| 2026-05-08 03:51 | 40.89711 | 29.29959 | 320 ft | 10 kts | 244° |
| 2026-05-08 03:51 | 40.89656 | 29.29927 | 320 ft | 10 kts | 147° |
| 2026-05-08 03:51 | 40.89634 | 29.30020 | 320 ft | 11 kts | 94° |
| 2026-05-08 03:52 | 40.89612 | 29.30116 | 321 ft | 10 kts | 141° |
| 2026-05-08 03:52 | 40.89582 | 29.30172 | 321 ft | 6 kts | 77° |
| 2026-05-08 03:52 | 40.89625 | 29.30302 | 321 ft | 42 kts | 64° |
| 2026-05-08 03:52 | 40.89870 | 29.30964 | 321 ft | 116 kts | 64° |
| 2026-05-08 03:53 | 40.90307 | 29.32146 | 458 ft | 157 kts | 63° |
| 2026-05-08 03:53 | 40.90801 | 29.33445 | 1016 ft | 161 kts | 63° |
| 2026-05-08 03:53 | 40.91311 | 29.34743 | 1653 ft | 164 kts | 63° |
| 2026-05-08 03:53 | 40.91813 | 29.36099 | 2298 ft | 166 kts | 65° |
| 2026-05-08 03:54 | 40.92299 | 29.37472 | 2918 ft | 168 kts | 64° |
| 2026-05-08 03:54 | 40.92793 | 29.38855 | 3503 ft | 168 kts | 64° |
| 2026-05-08 03:54 | 40.93308 | 29.40284 | 3829 ft | 177 kts | 65° |
| 2026-05-08 03:54 | 40.93511 | 29.41919 | 4066 ft | 190 kts | 104° |
| 2026-05-08 03:55 | 40.92781 | 29.43369 | 4330 ft | 198 kts | 147° |
| 2026-05-08 03:55 | 40.91512 | 29.44177 | 4623 ft | 210 kts | 159° |
| 2026-05-08 03:55 | 40.90129 | 29.44977 | 4904 ft | 227 kts | 158° |
| 2026-05-08 03:55 | 40.88615 | 29.45893 | 5161 ft | 248 kts | 156° |
| 2026-05-08 03:56 | 40.86993 | 29.46903 | 5534 ft | 266 kts | 156° |
| 2026-05-08 03:56 | 40.85275 | 29.47992 | 5988 ft | 280 kts | 155° |
| 2026-05-08 03:56 | 40.83514 | 29.49114 | 6643 ft | 286 kts | 155° |
| 2026-05-08 03:56 | 40.81735 | 29.50246 | 7343 ft | 289 kts | 155° |
| 2026-05-08 03:57 | 40.79911 | 29.51406 | 8039 ft | 292 kts | 155° |
| 2026-05-08 03:57 | 40.78086 | 29.52589 | 8684 ft | 296 kts | 151° |
| 2026-05-08 03:57 | 40.76429 | 29.54203 | 9321 ft | 301 kts | 135° |
| 2026-05-08 03:57 | 40.75060 | 29.56319 | 9986 ft | 304 kts | 127° |
| 2026-05-08 03:58 | 40.73793 | 29.58577 | 10504 ft | 312 kts | 125° |
| 2026-05-08 03:58 | 40.72492 | 29.60928 | 10776 ft | 327 kts | 126° |
| 2026-05-08 03:58 | 40.71110 | 29.63390 | 11100 ft | 341 kts | 126° |
| 2026-05-08 03:58 | 40.69643 | 29.65943 | 11596 ft | 349 kts | 129° |
| 2026-05-08 03:59 | 40.67816 | 29.67978 | 12095 ft | 351 kts | 154° |
| 2026-05-08 03:59 | 40.65500 | 29.68836 | 12733 ft | 349 kts | 178° |
| 2026-05-08 03:59 | 40.63074 | 29.68834 | 13277 ft | 350 kts | 183° |
| 2026-05-08 03:59 | 40.60617 | 29.68764 | 13822 ft | 354 kts | 183° |
| 2026-05-08 04:00 | 40.58151 | 29.68721 | 14363 ft | 357 kts | 182° |
| 2026-05-08 04:00 | 40.55688 | 29.68698 | 14867 ft | 360 kts | 182° |
| 2026-05-08 04:00 | 40.53140 | 29.68685 | 15363 ft | 363 kts | 182° |
| 2026-05-08 04:00 | 40.50621 | 29.68675 | 15896 ft | 366 kts | 182° |
| 2026-05-08 04:01 | 40.48076 | 29.68667 | 16383 ft | 369 kts | 182° |
| 2026-05-08 04:01 | 40.45496 | 29.68661 | 16867 ft | 371 kts | 182° |
| 2026-05-08 04:01 | 40.42910 | 29.68656 | 17361 ft | 374 kts | 182° |
| 2026-05-08 04:01 | 40.40287 | 29.68650 | 17820 ft | 377 kts | 182° |
| 2026-05-08 04:02 | 40.37683 | 29.68642 | 18315 ft | 380 kts | 182° |
| 2026-05-08 04:02 | 40.35039 | 29.68632 | 18736 ft | 383 kts | 182° |
| 2026-05-08 04:02 | 40.32498 | 29.68624 | 19162 ft | 385 kts | 182° |
| 2026-05-08 04:02 | 40.29815 | 29.68618 | 19637 ft | 387 kts | 182° |
| 2026-05-08 04:03 | 40.27116 | 29.68611 | 20043 ft | 390 kts | 183° |
| 2026-05-08 04:03 | 40.21655 | 29.68603 | 20810 ft | 395 kts | 183° |
| 2026-05-08 04:03 | 40.18905 | 29.68600 | 21158 ft | 397 kts | 182° |
| 2026-05-08 04:04 | 40.16122 | 29.68747 | 21586 ft | 400 kts | 178° |
| 2026-05-08 04:04 | 40.13331 | 29.69052 | 21944 ft | 403 kts | 178° |
| 2026-05-08 04:04 | 40.10527 | 29.69376 | 22266 ft | 406 kts | 178° |
| 2026-05-08 04:04 | 40.07719 | 29.69700 | 22615 ft | 408 kts | 178° |
| 2026-05-08 04:05 | 40.04882 | 29.70029 | 22981 ft | 410 kts | 178° |
| 2026-05-08 04:05 | 40.02037 | 29.70354 | 23333 ft | 412 kts | 178° |
| 2026-05-08 04:05 | 39.99184 | 29.70681 | 23678 ft | 415 kts | 178° |
| 2026-05-08 04:05 | 39.96287 | 29.71010 | 24016 ft | 417 kts | 178° |
| 2026-05-08 04:06 | 39.93384 | 29.71341 | 24354 ft | 419 kts | 178° |
| 2026-05-08 04:06 | 39.90522 | 29.71823 | 24694 ft | 423 kts | 172° |
| 2026-05-08 04:06 | 39.87653 | 29.72743 | 24988 ft | 427 kts | 165° |
| 2026-05-08 04:06 | 39.84839 | 29.74111 | 25276 ft | 432 kts | 159° |
| 2026-05-08 04:07 | 39.82087 | 29.75656 | 25580 ft | 434 kts | 158° |
| 2026-05-08 04:07 | 39.79604 | 29.77084 | 25828 ft | 436 kts | 158° |
| 2026-05-08 04:07 | 39.76766 | 29.78711 | 26096 ft | 439 kts | 158° |
| 2026-05-08 04:07 | 39.73985 | 29.80296 | 26370 ft | 441 kts | 158° |
| 2026-05-08 04:08 | 39.71169 | 29.81890 | 26654 ft | 443 kts | 159° |
| 2026-05-08 04:08 | 39.68317 | 29.83499 | 26916 ft | 445 kts | 158° |
| 2026-05-08 04:08 | 39.65454 | 29.85112 | 27209 ft | 446 kts | 158° |
| 2026-05-08 04:08 | 39.62610 | 29.86712 | 27453 ft | 449 kts | 159° |
| 2026-05-08 04:09 | 39.59760 | 29.88312 | 27690 ft | 451 kts | 158° |
| 2026-05-08 04:09 | 39.56849 | 29.89948 | 27912 ft | 453 kts | 159° |
| 2026-05-08 04:09 | 39.53963 | 29.91563 | 28163 ft | 455 kts | 159° |
| 2026-05-08 04:09 | 39.51061 | 29.93189 | 28426 ft | 457 kts | 158° |
| 2026-05-08 04:10 | 39.48135 | 29.94836 | 28646 ft | 459 kts | 158° |
| 2026-05-08 04:10 | 39.45212 | 29.96486 | 28892 ft | 461 kts | 158° |
| 2026-05-08 04:10 | 39.42261 | 29.98156 | 29124 ft | 463 kts | 158° |
| 2026-05-08 04:10 | 39.39301 | 29.99827 | 29198 ft | 465 kts | 158° |
| 2026-05-08 04:11 | 39.33398 | 30.03160 | 29212 ft | 465 kts | 158° |
| 2026-05-08 04:11 | 39.29458 | 30.05379 | 29211 ft | 465 kts | 158° |